Tiempo atmosférico en la estación meteorológica de Carrión De Los Céspedes, Sevilla (76 m.)



Fecha
DESCASC
Temp. máxima en grados centígrados (hora)
DESCASC
Temp. mínima en grados centígrados (hora)
DESCASC
Temp. media en grados centígrados
DESCASC
Racha de viento máxima en m/sg (hora)
DESCASC
Velocidad máxima media en intervalos de 10 minutos(hora)
DESCASC
Precipitaciones diarias en mm
DESCASC
Precipitaciones de 00:00 a 06:00 en mm
DESCASC
Precipitaciones de 06:00 a 12:00 en mm
DESCASC
Precipitaciones de 12:00 a 18:00 en mm
DESCASC
Precipitaciones de 18:00 a 24:00 en mm
DESCASC
31-03-2020 18.9 (17:40) 11.1 (08:30) 15 11.67 (16:50) 7.22 (16:50) 6.6 5.2 0.4 1 0
29-03-2020 21.2 (16:30) 6.7 (00:00) 14 6.94 (18:40) 5 (18:40) 0 0 0 0 0
28-03-2020 20.6 (16:20) 6.4 (00:00) 13.5 8.33 (13:10) 3.89 (08:50) 0 0 0 0 0
27-03-2020 19.6 (16:50) 5.2 (00:00) 12.4 8.06 (19:00) 5 (18:30) 0 0 0 0 0
26-03-2020 22.1 (15:10) 10.6 (00:00) 16.4 11.39 (16:30) 7.5 (16:20) 0 0 0 0 0
25-03-2020 20 (17:10) 11.4 (00:00) 15.7 9.17 (18:30) 5.83 (18:40) 0 0 0 0 0
24-03-2020 21.2 (15:50) 8.7 (00:00) 15 10 (12:10) 6.67 (12:10) 0.6 0.6 0 0 0
23-03-2020 18.7 (15:10) 6.9 (00:00) 12.8 8.33 (19:00) 4.72 (10:30) 0 0 0 0 0
22-03-2020 17 (17:10) 8 (00:30) 12.5 5.28 (12:40) 3.33 (12:50) 0 0 0 0 0
21-03-2020 11.9 (11:20) 6.6 (00:00) 9.2 9.17 (01:50) 5.83 (01:50) 15.8 2 1.6 12.2 0
20-03-2020 18.8 (17:00) 11.4 (00:00) 15.1 8.33 (12:10) 5 (12:00) 22.2 0 0 0.6 21.6
19-03-2020 23 (16:30) 11.6 (00:00) 17.3 11.67 (12:30) 7.78 (12:30) 0 0 0 0 0
18-03-2020 23.7 (16:40) 12.4 (00:00) 18.1 14.17 (16:50) 9.17 (16:50) 0 0 0 0 0
17-03-2020 16.9 (17:40) 6.5 (00:00) 11.7 13.61 (23:10) 8.61 (23:20) 10.8 0.2 9.8 0.6 0.2
16-03-2020 18.1 (16:10) 4.6 (00:00) 11.4 11.94 (13:30) 6.94 (14:40) 2.2 0 0 0 2.2
15-03-2020 23.6 (17:10) 8.1 (00:00) 15.9 8.33 (18:40) 5.56 (18:50) 0 0 0 0 0
14-03-2020 22.1 (18:00) 11.2 (00:00) 16.7 3.61 (14:50) 2.5 (20:20) 0.2 0 0.2 0 0
13-03-2020 22.2 (17:30) 10.4 (00:50) 16.3 5 (16:00) 3.06 (18:30) 0 0 0 0 0
12-03-2020 24.1 (15:30) 8 (00:00) 16.1 7.5 (15:40) 5.28 (15:40) 0 0 0 0 0
11-03-2020 29.3 (16:40) 7.6 (00:00) 18.4 7.5 (11:40) 5.28 (11:40) 0 0 0 0 0
10-03-2020 28.1 (16:40) 9.1 (00:00) 18.6 9.72 (13:50) 7.22 (14:40) 0 0 0 0 0
09-03-2020 25.3 (17:50) 4.1 (00:00) 14.7 7.5 (16:30) 4.17 (16:40) 0 0 0 0 0
08-03-2020 24.8 (16:40) 4.4 (00:00) 14.6 6.94 (18:10) 4.72 (18:40) 0 0 0 0 0
07-03-2020 21.1 (17:50) 4.1 (00:00) 12.6 9.17 (11:50) 5.56 (11:50) 0 0 0 0 0
06-03-2020 20.3 (16:00) 5.6 (00:00) 12.9 10 (13:20) 6.11 (13:20) 0 0 0 0 0
05-03-2020 19.6 (16:40) 8.2 (00:00) 13.9 10 (16:50) 6.67 (17:00) 0 0 0 0 0
04-03-2020 22.1 (16:50) 8.5 (07:10) 15.3 7.78 (16:00) 4.17 (17:30) 0 0 0 0 0
03-03-2020 19.9 (16:20) 5.2 (00:00) 12.5 10.83 (12:00) 6.67 (13:00) 0 0 0 0 0

Gráficas

Temp. máximas Temp. mínimas Temp. medias Precipitaciones Rachas de viento máximas Velocidades máximas media en intervalos de 10 minutos

Datos horarios

Fecha y hora oficial Temperatura (ºC) Velocidad del viento (km/h) Dirección del viento Racha (km/h) Dirección de racha Precipitación (mm) Presión (hPa) Tendencia (hPa) Humedad (%)
2020-04-01 23:00:00 11.5 5 Sur 27 Oeste 1.6 -- -- 92
2020-04-01 22:00:00 12.2 5 Sur 9 Sur 0 -- -- 85
2020-04-01 21:00:00 13.2 5 Sur 21 Sudoeste 0 -- -- 77
2020-04-01 20:00:00 15.2 9 Sudoeste 23 Sudoeste 0 -- -- 67
2020-04-01 19:00:00 15.6 14 Sudoeste 36 Oeste 0.2 -- -- 64
2020-04-01 18:00:00 14.8 14 Oeste 27 Sudoeste 0 -- -- 72
2020-04-01 17:00:00 12.6 12 Noroeste 41 Noroeste 0.4 -- -- 81
2020-04-01 16:00:00 13.6 10 Sur 24 Sudoeste 0.2 -- -- 78
2020-04-01 15:00:00 14.1 14 Sudoeste 26 Oeste 0 -- -- 72
2020-04-01 14:00:00 14.7 6 Sur 19 Sur 0 -- -- 63
2020-04-01 13:00:00 15.6 7 Sur 17 Sur 0 -- -- 58
2020-04-01 12:00:00 14.3 7 Sur 14 Sudeste 0 -- -- 62
2020-04-01 11:00:00 12.3 9 Sudeste 14 Sudeste 0 -- -- 69
2020-04-01 10:00:00 9.2 0 Calma 2 Sudeste 0 -- -- 96
2020-04-01 09:00:00 7.8 0 Calma 3 Sudeste 0.2 -- -- 98
2020-04-01 08:00:00 7.2 0 Calma 4 Sudeste 0 -- -- 97
2020-04-01 07:00:00 6.5 0 Calma 4 Noroeste 0 -- -- 96
2020-04-01 06:00:00 6.6 0 Calma 4 Noroeste 0 -- -- 95
2020-04-01 05:00:00 7.3 4 Noroeste 6 Noroeste 0 -- -- 93
2020-04-01 04:00:00 8.4 0 Calma 4 Noroeste 0 -- -- 93
2020-04-01 03:00:00 9.4 3 Noroeste 6 Noroeste 0 -- -- 91
2020-04-01 02:00:00 10.3 0 Calma 11 Noroeste 0 -- -- 87
2020-04-01 01:00:00 11.3 5 Noroeste 8 Noroeste 0 -- -- 90
2020-04-01 00:00:00 12.2 6 Sudoeste 15 Sudoeste 0 -- -- 86
2020-03-31 23:00:00 12.4 9 Sudoeste 15 Sudoeste 0 -- -- 83
2020-03-31 22:00:00 12.8 6 Sudoeste 17 Sudoeste 0 -- -- 84
2020-03-31 21:00:00 14.2 12 Oeste 28 Oeste 0 -- -- 79
2020-03-31 20:00:00 16.6 18 Oeste 33 Oeste 0 -- -- 69
2020-03-31 19:00:00 18 24 Oeste 40 Sudoeste 0 -- -- 61
2020-03-31 18:00:00 18.6 22 Sudoeste 40 Sudoeste 0 -- -- 61
2020-03-31 17:00:00 18.2 21 Sudoeste 42 Oeste 0 -- -- 68
2020-03-31 16:00:00 17.4 20 Oeste 38 Sudoeste 0 -- -- 77
2020-03-31 15:00:00 18 19 Sudoeste 38 Sudoeste 0 -- -- 73
2020-03-31 14:00:00 16.7 18 Sudoeste 38 Sudoeste 0.2 -- -- 82
2020-03-31 13:00:00 16.9 19 Sudoeste 33 Sudoeste 0.8 -- -- 82
2020-03-31 12:00:00 15.8 12 Oeste 22 Sudoeste 0 -- -- 88
2020-03-31 11:00:00 14.9 7 Sur 16 Sudoeste 0.4 -- -- 91
2020-03-31 10:00:00 13.2 7 Sur 12 Sur 0 -- -- 97
2020-03-31 09:00:00 11.5 6 Sur 12 Sur 0 -- -- 98
2020-03-31 08:00:00 11.3 7 Sudoeste 13 Sur 0 -- -- 98
2020-03-31 07:00:00 11.5 6 Sur 18 Sur 0 -- -- 97
2020-03-31 06:00:00 11.8 10 Sudoeste 21 Sudeste 0.2 -- -- 97
2020-03-31 05:00:00 11.8 15 Sudeste 27 Sudeste 0.8 -- -- 98
2020-03-31 04:00:00 11.4 9 Sudeste 21 Este 0 -- -- 97
2020-03-31 03:00:00 11.3 13 Sudeste 31 Este 0.2 -- -- 96
2020-03-31 02:00:00 11.4 15 Sudeste 32 Sudeste 1.2 -- -- 97
2020-03-31 01:00:00 11.4 20 Sudeste 36 Sudeste 2.8 -- -- 97
2020-03-31 00:00:00 11.2 9 Sudeste 27 Sudeste 1.6 -- -- 96
2020-03-30 23:00:00 11.3 14 Sudeste 29 Este 2.8 -- -- 96
2020-03-30 22:00:00 11.9 6 Sudeste 17 Este 1.4 -- -- 95
2020-03-30 21:00:00 12.3 8 Este 17 Este 0.2 -- -- 94
2020-03-30 20:00:00 12.5 6 Nordeste 14 Norte 0.2 -- -- 92
2020-03-30 19:00:00 12.7 8 Norte 13 Norte 1.4 -- -- 94
2020-03-30 18:00:00 12.9 5 Oeste 15 Noroeste 1.4 -- -- 92
2020-03-30 17:00:00 13.2 11 Oeste 39 Sudoeste 1.2 -- -- 88
2020-03-30 16:00:00 16.6 18 Sudoeste 33 Sudoeste 0 -- -- 71
2020-03-30 15:00:00 17.5 14 Sudoeste 27 Sur 0.4 -- -- 69
2020-03-30 14:00:00 16.7 9 Sur 19 Sudeste 0 -- -- 71
2020-03-30 13:00:00 16.8 8 Sur 18 Sudeste 0 -- -- 76
2020-03-30 12:00:00 14.1 2 Sur 10 Sudeste 0 -- -- 89
2020-03-30 11:00:00 12 3 Este 10 Este 0 -- -- 99
2020-03-30 10:00:00 10.5 0 Calma 5 Este 0 -- -- 99
2020-03-30 09:00:00 8.8 3 Oeste 4 Oeste 0 -- -- 99
2020-03-30 08:00:00 7.4 3 Noroeste 4 Noroeste 0 -- -- 98
2020-03-30 07:00:00 7 4 Norte 5 Noroeste 0 -- -- 98
2020-03-30 06:00:00 7.3 0 Calma 3 Noroeste 0 -- -- 97
2020-03-30 05:00:00 7.8 2 Oeste 3 Oeste 0 -- -- 96
2020-03-30 04:00:00 8.3 0 Calma 3 Oeste 0 -- -- 95
2020-03-30 03:00:00 9 0 Calma 4 Noroeste 0 -- -- 94
2020-03-30 02:00:00 10.2 0 Calma 2 Sudoeste 0 -- -- 93
2020-03-30 01:00:00 11.1 0 Calma 2 Nordeste 0 -- -- 91
2020-03-30 00:00:00 12 0 Calma 5 Sudoeste 0 -- -- 89
2020-03-29 23:00:00 13.1 3 Sudoeste 9 Sudoeste 0 -- -- 84
2020-03-29 22:00:00 14.4 0 Calma 6 Sudoeste 0 -- -- 79
2020-03-29 21:00:00 15.8 4 Oeste 15 Oeste 0 -- -- 75
2020-03-29 20:00:00 18 10 Sudoeste 22 Oeste 0 -- -- 67
2020-03-29 19:00:00 18.6 14 Oeste 25 Oeste 0 -- -- 64
2020-03-29 18:00:00 19.8 8 Oeste 14 Sudoeste 0 -- -- 53
2020-03-29 17:00:00 20.9 8 Sudoeste 19 Sudoeste 0 -- -- 51
2020-03-29 16:00:00 20.5 7 Sur 14 Sudeste 0 -- -- 53
2020-03-29 15:00:00 20.2 6 Sur 15 Este 0 -- -- 51
2020-03-29 14:00:00 18.7 3 Este 15 Sudeste 0 -- -- 58
2020-03-29 13:00:00 18.5 7 Sudeste 14 Sudeste 0 -- -- 59
2020-03-29 12:00:00 16.7 3 Este 10 Nordeste 0 -- -- 66
2020-03-29 11:00:00 14.4 7 Nordeste 11 Nordeste 0 -- -- 78
2020-03-29 10:00:00 10.4 0 Calma 3 Norte 0 -- -- 98
2020-03-29 09:00:00 8 3 Oeste 6 Oeste 0 -- -- 98
2020-03-29 08:00:00 6.9 0 Calma 4 Norte 0 -- -- 97
2020-03-29 07:00:00 6.9 0 Calma 5 Noroeste 0 -- -- 96
2020-03-29 06:00:00 7.1 2 Noroeste 4 Noroeste 0 -- -- 95
2020-03-29 05:00:00 7.8 0 Calma 3 Noroeste 0 -- -- 93
2020-03-29 03:00:00 8.9 0 Calma 4 Noroeste 0 -- -- 91
2020-03-29 01:00:00 9.7 3 Noroeste 6 Noroeste 0 -- -- 89
2020-03-29 00:00:00 11.7 3 Noroeste 10 Oeste 0 -- -- 83
2020-03-28 23:00:00 12.4 2 Este 5 Este 0 -- -- 79
2020-03-28 22:00:00 13.6 5 Oeste 12 Sudoeste 0 -- -- 74
2020-03-28 21:00:00 14.8 6 Oeste 12 Sudoeste 0 -- -- 72
2020-03-28 20:00:00 16.6 6 Sudoeste 19 Sudoeste 0 -- -- 64
2020-03-28 19:00:00 18.9 4 Sudoeste 12 Sudoeste 0 -- -- 51
2020-03-28 18:00:00 20.3 9 Sudoeste 15 Sudoeste 0 -- -- 44
2020-03-28 17:00:00 19.5 4 Este 13 Sudoeste 0 -- -- 46
2020-03-28 16:00:00 20.3 3 Sudoeste 16 Sudoeste 0 -- -- 42
2020-03-28 15:00:00 19.2 7 Sudeste 19 Este 0 -- -- 45
2020-03-28 14:00:00 18.2 5 Este 30 Sudeste 0 -- -- 53
2020-03-28 13:00:00 17.4 8 Este 18 Sudeste 0 -- -- 57
2020-03-28 12:00:00 16.5 9 Este 19 Este 0 -- -- 62
2020-03-28 11:00:00 14.4 10 Nordeste 19 Nordeste 0 -- -- 70
2020-03-28 10:00:00 12.4 10 Nordeste 24 Nordeste 0 -- -- 75
2020-03-28 09:00:00 10.4 13 Nordeste 23 Nordeste 0 -- -- 81
2020-03-28 08:00:00 8.7 10 Nordeste 16 Nordeste 0 -- -- 89
2020-03-28 07:00:00 7.1 2 Nordeste 6 Nordeste 0 -- -- 97
2020-03-28 06:00:00 7.9 0 Calma 11 Nordeste 0 -- -- 97
2020-03-28 05:00:00 6.8 2 Oeste 4 Oeste 0 -- -- 97
2020-03-28 04:00:00 6.5 0 Calma 5 Noroeste 0 -- -- 96
2020-03-28 03:00:00 7.1 0 Calma 4 Oeste 0 -- -- 95
2020-03-28 02:00:00 7.4 3 Oeste 4 Oeste 0 -- -- 94
2020-03-28 01:00:00 8.1 0 Calma 3 Oeste 0 -- -- 93
2020-03-28 00:00:00 9.1 0 Calma 2 Oeste 0 -- -- 90
2020-03-27 23:00:00 10.2 2 Sur 3 Sur 0 -- -- 87
2020-03-27 22:00:00 11.6 2 Noroeste 9 Oeste 0 -- -- 83
2020-03-27 21:00:00 12.6 2 Oeste 9 Sudoeste 0 -- -- 78
2020-03-27 20:00:00 13.9 6 Sudoeste 23 Sudoeste 0 -- -- 72
2020-03-27 19:00:00 16.3 13 Sudoeste 29 Sudoeste 0 -- -- 65
2020-03-27 18:00:00 19.1 10 Sudoeste 22 Sur 0 -- -- 52
2020-03-27 17:00:00 19.5 13 Oeste 22 Oeste 0 -- -- 46
2020-03-27 16:00:00 19 9 Oeste 26 Oeste 0 -- -- 46
2020-03-27 15:00:00 18.4 11 Oeste 24 Oeste 0 -- -- 52
2020-03-27 14:00:00 17.4 13 Oeste 23 Oeste 0 -- -- 54
2020-03-27 13:00:00 16.6 12 Sudoeste 23 Sudoeste 0 -- -- 55
2020-03-27 12:00:00 14.2 9 Oeste 20 Oeste 0 -- -- 69
2020-03-27 11:00:00 12.1 5 Noroeste 19 Noroeste 0 -- -- 77
2020-03-27 10:00:00 11 10 Noroeste 21 Noroeste 0 -- -- 82
2020-03-27 09:00:00 8.5 9 Noroeste 16 Noroeste 0 -- -- 96
2020-03-27 08:00:00 6.3 6 Noroeste 11 Noroeste 0 -- -- 97
2020-03-27 07:00:00 5.6 4 Oeste 6 Oeste 0 -- -- 96
2020-03-27 06:00:00 6.5 5 Noroeste 8 Noroeste 0 -- -- 96
2020-03-27 05:00:00 7.3 3 Oeste 9 Noroeste 0 -- -- 94
2020-03-27 04:00:00 8.5 0 Calma 9 Noroeste 0 -- -- 93
2020-03-27 03:00:00 9.5 4 Noroeste 13 Noroeste 0 -- -- 92
2020-03-27 02:00:00 10.5 8 Noroeste 18 Noroeste 0 -- -- 91
2020-03-27 01:00:00 11.2 11 Noroeste 19 Noroeste 0 -- -- 90
2020-03-27 00:00:00 10.6 8 Noroeste 12 Noroeste 0 -- -- 89
2020-03-26 23:00:00 13 8 Noroeste 15 Oeste 0 -- -- 82
2020-03-26 22:00:00 14.5 12 Noroeste 26 Oeste 0 -- -- 74
2020-03-26 21:00:00 13.3 8 Noroeste 13 Noroeste 0 -- -- 72
2020-03-26 20:00:00 16.9 10 Noroeste 24 Noroeste 0 -- -- 57
2020-03-26 19:00:00 19.9 17 Noroeste 35 Noroeste 0 -- -- 45
2020-03-26 18:00:00 21.1 20 Oeste 36 Oeste 0 -- -- 46
2020-03-26 17:00:00 21.6 25 Oeste 41 Oeste 0 -- -- 46
2020-03-26 16:00:00 22 26 Oeste 39 Noroeste 0 -- -- 44
2020-03-26 15:00:00 21.9 24 Oeste 39 Noroeste 0 -- -- 45
2020-03-26 14:00:00 21.3 24 Oeste 41 Oeste 0 -- -- 52
2020-03-26 13:00:00 20.3 16 Oeste 27 Oeste 0 -- -- 58
2020-03-26 12:00:00 18.5 12 Oeste 21 Oeste 0 -- -- 66
2020-03-26 11:00:00 16.3 11 Oeste 19 Oeste 0 -- -- 76
2020-03-26 10:00:00 13.4 12 Oeste 22 Oeste 0 -- -- 87
2020-03-26 09:00:00 11.7 9 Oeste 17 Oeste 0 -- -- 95
2020-03-26 08:00:00 11.8 9 Noroeste 15 Oeste 0 -- -- 96
2020-03-26 07:00:00 12 11 Oeste 17 Oeste 0 -- -- 96
2020-03-26 06:00:00 12.8 11 Oeste 20 Oeste 0 -- -- 96
2020-03-26 05:00:00 12.8 7 Oeste 15 Oeste 0 -- -- 96
2020-03-26 04:00:00 12.7 7 Sudoeste 12 Sudoeste 0 -- -- 95
2020-03-26 03:00:00 12.6 4 Sudoeste 7 Sur 0 -- -- 95
2020-03-26 02:00:00 13 2 Oeste 10 Sudoeste 0 -- -- 94
2020-03-26 01:00:00 12.8 4 Oeste 9 Sudoeste 0 -- -- 95
2020-03-26 00:00:00 12.5 2 Oeste 9 Oeste 0 -- -- 94
2020-03-25 23:00:00 13 4 Noroeste 15 Oeste 0 -- -- 91
2020-03-25 22:00:00 14.1 12 Oeste 30 Oeste 0 -- -- 87
2020-03-25 21:00:00 14.7 17 Oeste 28 Oeste 0 -- -- 83
2020-03-25 20:00:00 15.7 16 Oeste 23 Oeste 0 -- -- 75
2020-03-25 19:00:00 17.5 15 Oeste 33 Oeste 0 -- -- 68
2020-03-25 18:00:00 19.7 14 Oeste 25 Oeste 0 -- -- 63
2020-03-25 17:00:00 19.9 16 Oeste 27 Oeste 0 -- -- 62
2020-03-25 16:00:00 19.4 14 Oeste 22 Oeste 0 -- -- 64
2020-03-25 15:00:00 18.9 9 Oeste 20 Oeste 0 -- -- 67
2020-03-25 14:00:00 19 11 Oeste 19 Oeste 0 -- -- 64
2020-03-25 13:00:00 18 7 Oeste 14 Oeste 0 -- -- 64
2020-03-25 12:00:00 16.1 3 Sur 6 Sudoeste 0 -- -- 64
2020-03-25 11:00:00 14.8 4 Oeste 5 Oeste 0 -- -- 77
2020-03-25 10:00:00 14.1 0 Calma 12 Nordeste 0 -- -- 73
2020-03-25 09:00:00 12.8 5 Nordeste 12 Este 0 -- -- 89
2020-03-25 08:00:00 11.5 0 Calma 5 Noroeste 0 -- -- 93
2020-03-25 07:00:00 11.4 0 Calma 6 Norte 0 -- -- 93
2020-03-25 06:00:00 11.5 3 Noroeste 6 Noroeste 0 -- -- 92
2020-03-25 05:00:00 11.8 0 Calma 7 Norte 0 -- -- 91
2020-03-25 04:00:00 12.3 2 Oeste 8 Nordeste 0 -- -- 86
2020-03-25 03:00:00 13.8 4 Este 20 Este 0 -- -- 78
2020-03-25 02:00:00 14 9 Este 19 Este 0 -- -- 75
2020-03-25 01:00:00 14.7 11 Nordeste 18 Nordeste 0 -- -- 74
2020-03-25 00:00:00 14.8 3 Nordeste 12 Noroeste 0 -- -- 83
2020-03-24 23:00:00 14.5 4 Norte 9 Norte 0 -- -- 86
2020-03-24 22:00:00 14.4 5 Noroeste 10 Norte 0 -- -- 86
2020-03-24 21:00:00 16.1 3 Noroeste 8 Noroeste 0 -- -- 77
2020-03-24 20:00:00 17.4 3 Norte 8 Sudoeste 0 -- -- 69
2020-03-24 19:00:00 18.8 0 Calma 8 Este 0 -- -- 64
2020-03-24 18:00:00 19.5 3 Este 14 Este 0 -- -- 59
2020-03-24 17:00:00 20.4 12 Este 25 Este 0 -- -- 53
2020-03-24 16:00:00 21 13 Este 31 Este 0 -- -- 50
2020-03-24 15:00:00 20.5 17 Este 32 Este 0 -- -- 53
2020-03-24 14:00:00 20.2 17 Nordeste 35 Este 0 -- -- 55
2020-03-24 13:00:00 18.8 16 Nordeste 36 Este 0 -- -- 61
2020-03-24 12:00:00 18.1 20 Este 32 Este 0 -- -- 61
2020-03-24 11:00:00 16.9 19 Nordeste 31 Este 0 -- -- 65
2020-03-24 10:00:00 14 12 Nordeste 21 Nordeste 0 -- -- 77
2020-03-24 09:00:00 12.4 13 Nordeste 24 Nordeste 0 -- -- 81
2020-03-24 08:00:00 10.7 10 Norte 20 Nordeste 0 -- -- 85
2020-03-24 07:00:00 9.9 8 Norte 18 Norte 0 -- -- 88
2020-03-24 06:00:00 9.6 6 Norte 19 Norte 0.2 -- -- 90
2020-03-24 05:00:00 9.1 6 Norte 15 Norte 0 -- -- 95
2020-03-24 04:00:00 9.1 4 Norte 7 Oeste 0 -- -- 95
2020-03-24 03:00:00 10.2 4 Noroeste 10 Noroeste 0 -- -- 94
2020-03-24 02:00:00 11 4 Noroeste 9 Noroeste 0.2 -- -- 93
2020-03-24 01:00:00 11.4 7 Nordeste 18 Nordeste 0.2 -- -- 88
2020-03-24 00:00:00 11.3 9 Nordeste 17 Nordeste 0 -- -- 86
2020-03-23 23:00:00 11.4 9 Nordeste 23 Nordeste 0 -- -- 85
2020-03-23 22:00:00 12.4 14 Nordeste 24 Nordeste 0 -- -- 81
2020-03-23 21:00:00 12.8 12 Nordeste 20 Nordeste 0 -- -- 79
2020-03-23 20:00:00 14 0 Calma 18 Sudeste 0 -- -- 82
2020-03-23 19:00:00 16.2 15 Sudeste 30 Sudeste 0 -- -- 70
2020-03-23 18:00:00 17.9 11 Norte 23 Nordeste 0 -- -- 58
2020-03-23 17:00:00 17.4 14 Nordeste 23 Nordeste 0 -- -- 62
2020-03-23 16:00:00 18.3 15 Nordeste 27 Nordeste 0 -- -- 58
2020-03-23 15:00:00 18.3 13 Nordeste 25 Nordeste 0 -- -- 60
2020-03-23 14:00:00 17.2 10 Este 24 Este 0 -- -- 67
2020-03-23 13:00:00 16.7 15 Nordeste 26 Este 0 -- -- 67
2020-03-23 12:00:00 15 15 Nordeste 25 Nordeste 0 -- -- 79
2020-03-23 11:00:00 13 15 Nordeste 25 Nordeste 0 -- -- 84
2020-03-23 10:00:00 11.5 12 Nordeste 20 Nordeste 0 -- -- 90
2020-03-23 09:00:00 10.5 5 Nordeste 10 Nordeste 0 -- -- 92
2020-03-23 08:00:00 9.4 2 Oeste 5 Oeste 0 -- -- 97
2020-03-23 07:00:00 9 3 Sudeste 7 Este 0 -- -- 98
2020-03-23 06:00:00 8.6 3 Noroeste 6 Noroeste 0 -- -- 98
2020-03-23 05:00:00 7.6 0 Calma 7 Noroeste 0 -- -- 98
2020-03-23 04:00:00 6.9 5 Norte 8 Norte 0 -- -- 97
2020-03-23 03:00:00 7.3 4 Noroeste 6 Noroeste 0 -- -- 97
2020-03-23 02:00:00 8 0 Calma 4 Noroeste 0 -- -- 96
2020-03-23 01:00:00 9 0 Calma 4 Sudoeste 0 -- -- 96
2020-03-23 00:00:00 9.2 0 Calma 8 Norte 0 -- -- 95
2020-03-22 23:00:00 9.3 6 Noroeste 11 Noroeste 0 -- -- 94
2020-03-22 22:00:00 9.9 2 Noroeste 5 Oeste 0 -- -- 93
2020-03-22 21:00:00 11.5 2 Oeste 4 Sudeste 0 -- -- 89
2020-03-22 20:00:00 13.3 0 Calma 3 Oeste 0 -- -- 84
2020-03-22 19:00:00 15.1 4 Nordeste 15 Nordeste 0 -- -- 67
2020-03-22 18:00:00 16.6 6 Norte 15 Norte 0 -- -- 60
2020-03-22 17:00:00 16.7 5 Norte 12 Nordeste 0 -- -- 58
2020-03-22 16:00:00 16 3 Norte 12 Norte 0 -- -- 65
2020-03-22 15:00:00 14.8 0 Calma 13 Este 0 -- -- 70
2020-03-22 14:00:00 14.2 10 Este 17 Este 0 -- -- 77
2020-03-22 13:00:00 12.9 12 Nordeste 19 Este 0 -- -- 86
2020-03-22 12:00:00 13.5 4 Este 13 Nordeste 0 -- -- 79
2020-03-22 11:00:00 13 9 Nordeste 14 Norte 0 -- -- 83
2020-03-22 10:00:00 11.1 7 Nordeste 13 Nordeste 0 -- -- 95
2020-03-22 09:00:00 9.3 6 Nordeste 10 Norte 0 -- -- 99
2020-03-22 08:00:00 8.9 2 Nordeste 8 Norte 0 -- -- 99
2020-03-22 07:00:00 8.7 0 Calma 4 Nordeste 0 -- -- 99
2020-03-22 06:00:00 8.7 0 Calma 4 Nordeste 0 -- -- 99
2020-03-22 05:00:00 8.5 3 Norte 9 Nordeste 0 -- -- 99
2020-03-22 04:00:00 8.6 2 Noroeste 7 Nordeste 0 -- -- 99
2020-03-22 03:00:00 8.6 0 Calma 8 Norte 0 -- -- 98
2020-03-22 02:00:00 8.6 3 Norte 8 Nordeste 0 -- -- 98
2020-03-22 01:00:00 8.1 0 Calma 7 Norte 0 -- -- 98
2020-03-22 00:00:00 8.5 0 Calma 6 Este 0 -- -- 97
2020-03-21 23:00:00 9.2 3 Este 5 Sudeste 0 -- -- 97
2020-03-21 22:00:00 9.2 0 Calma 4 Sur 0 -- -- 97
2020-03-21 21:00:00 9.3 2 Nordeste 8 Sudeste 0 -- -- 95
2020-03-21 20:00:00 9.8 4 Este 6 Sudeste 0 -- -- 91
2020-03-21 19:00:00 11.1 4 Sudeste 9 Sudeste 0 -- -- 85
2020-03-21 18:00:00 10.9 3 Noroeste 20 Noroeste 1 -- -- 85
2020-03-21 17:00:00 11.3 13 Noroeste 26 Noroeste 0.6 -- -- 89
2020-03-21 16:00:00 10.8 14 Este 21 Este 0.6 -- -- 96
2020-03-21 15:00:00 10 10 Este 20 Sudeste 4.6 -- -- 97
2020-03-21 14:00:00 10 11 Sudeste 26 Sudeste 3 -- -- 96
2020-03-21 13:00:00 10.4 13 Sudeste 23 Sudeste 2.4 -- -- 94
2020-03-21 12:00:00 11.5 12 Sudeste 23 Sur 1.2 -- -- 92
2020-03-21 11:00:00 11.8 9 Sudeste 18 Sudeste 0.4 -- -- 95
2020-03-21 10:00:00 11.6 9 Sudeste 17 Sudeste 0 -- -- 97
2020-03-21 09:00:00 9.1 0 Calma 6 Sudeste 0 -- -- 100
2020-03-21 08:00:00 6.9 3 Sur 5 Sudeste 0 -- -- 99
2020-03-21 07:00:00 7.1 0 Calma 2 Sur 0 -- -- 98
2020-03-21 06:00:00 8.1 0 Calma 4 Oeste 0 -- -- 97
2020-03-21 05:00:00 8.6 4 Noroeste 12 Noroeste 0 -- -- 97
2020-03-21 04:00:00 9.3 4 Oeste 18 Oeste 0 -- -- 96
2020-03-21 03:00:00 10.1 9 Oeste 29 Oeste 0 -- -- 95
2020-03-21 02:00:00 10.6 18 Oeste 33 Oeste 0 -- -- 96
2020-03-21 01:00:00 11 17 Oeste 24 Oeste 2 -- -- 96
2020-03-21 00:00:00 11.6 7 Oeste 30 Noroeste 9.6 -- -- 95
2020-03-20 23:00:00 13.4 11 Sur 21 Sudeste 4.4 -- -- 95
2020-03-20 22:00:00 13.6 10 Sur 21 Sudeste 6.2 -- -- 95
2020-03-20 21:00:00 14.3 10 Sur 30 Sur 1.2 -- -- 91
2020-03-20 20:00:00 16 11 Sur 24 Sur 0.2 -- -- 80
2020-03-20 19:00:00 17.9 10 Sur 20 Sur 0 -- -- 70
2020-03-20 18:00:00 18.4 10 Sudeste 23 Sudeste 0 -- -- 64
2020-03-20 17:00:00 18.8 13 Sudeste 20 Sudeste 0 -- -- 64
2020-03-20 16:00:00 18.6 10 Sudeste 22 Sudeste 0 -- -- 66
2020-03-20 15:00:00 17.5 4 Este 10 Sudeste 0 -- -- 74
2020-03-20 14:00:00 16 5 Sudeste 13 Sudeste 0 -- -- 79
2020-03-20 13:00:00 14.9 6 Este 30 Sudeste 0.6 -- -- 86
2020-03-20 12:00:00 17.4 18 Sudeste 29 Sudeste 0 -- -- 62
2020-03-20 11:00:00 16.6 9 Este 14 Este 0 -- -- 77
2020-03-20 10:00:00 14.7 5 Nordeste 9 Nordeste 0 -- -- 83
2020-03-20 09:00:00 13.2 3 Este 13 Nordeste 0 -- -- 89
2020-03-20 08:00:00 11.5 2 Norte 8 Nordeste 0 -- -- 96
2020-03-20 07:00:00 11.5 0 Calma 5 Oeste 0 -- -- 95
2020-03-20 06:00:00 11.5 3 Oeste 3 Oeste 0 -- -- 94
2020-03-20 05:00:00 12.2 0 Calma 3 Sudeste 0 -- -- 93
2020-03-20 04:00:00 13.2 3 Noroeste 5 Noroeste 0 -- -- 92
2020-03-20 03:00:00 13.2 0 Calma 5 Noroeste 0 -- -- 91
2020-03-20 02:00:00 13 0 Calma 4 Norte 0 -- -- 90
2020-03-20 01:00:00 12.5 0 Calma 6 Norte 0 -- -- 88
2020-03-20 00:00:00 13.6 3 Noroeste 15 Oeste 0 -- -- 82
2020-03-19 23:00:00 14.1 3 Noroeste 10 Oeste 0 -- -- 82
2020-03-19 22:00:00 15.1 4 Oeste 9 Noroeste 0 -- -- 79
2020-03-19 21:00:00 16.3 5 Noroeste 9 Noroeste 0 -- -- 75
2020-03-19 20:00:00 18.2 0 Calma 14 Sur 0 -- -- 69
2020-03-19 19:00:00 20.5 10 Sudeste 17 Nordeste 0 -- -- 61
2020-03-19 18:00:00 22.1 12 Este 25 Nordeste 0 -- -- 52
2020-03-19 17:00:00 22.5 14 Este 28 Este 0 -- -- 52
2020-03-19 16:00:00 22.5 14 Nordeste 28 Este 0 -- -- 50
2020-03-19 15:00:00 21.8 17 Este 31 Este 0 -- -- 52
2020-03-19 14:00:00 20.9 19 Este 33 Este 0 -- -- 54
2020-03-19 13:00:00 19.6 24 Este 42 Este 0 -- -- 56
2020-03-19 12:00:00 19.4 23 Este 41 Este 0 -- -- 61
2020-03-19 11:00:00 17.4 21 Nordeste 33 Este 0 -- -- 70
2020-03-19 10:00:00 14.8 19 Nordeste 32 Nordeste 0 -- -- 77
2020-03-19 09:00:00 13.3 14 Nordeste 21 Nordeste 0 -- -- 82
2020-03-19 08:00:00 12.7 6 Norte 15 Nordeste 0 -- -- 84
2020-03-19 07:00:00 12.2 9 Nordeste 24 Norte 0 -- -- 85
2020-03-19 06:00:00 12.7 16 Nordeste 23 Nordeste 0 -- -- 82
2020-03-19 05:00:00 13.1 9 Nordeste 15 Nordeste 0 -- -- 82
2020-03-19 04:00:00 11.7 0 Calma 7 Norte 0 -- -- 88
2020-03-19 03:00:00 11.6 3 Oeste 8 Norte 0 -- -- 88
2020-03-19 02:00:00 12.3 5 Noroeste 9 Noroeste 0 -- -- 87
2020-03-19 01:00:00 12.7 3 Noroeste 7 Noroeste 0 -- -- 85
2020-03-19 00:00:00 14 4 Oeste 6 Sudeste 0 -- -- 80
2020-03-18 23:00:00 15.2 4 Sudeste 17 Nordeste 0 -- -- 72
2020-03-18 22:00:00 16.4 6 Nordeste 12 Nordeste 0 -- -- 67
2020-03-18 21:00:00 17.7 7 Nordeste 18 Este 0 -- -- 63
2020-03-18 20:00:00 19.7 11 Este 22 Este 0 -- -- 55
2020-03-18 19:00:00 21.6 16 Este 36 Este 0 -- -- 49
2020-03-18 18:00:00 22.7 24 Este 42 Este 0 -- -- 48
2020-03-18 17:00:00 23.6 28 Este 51 Este 0 -- -- 46
2020-03-18 16:00:00 23.3 26 Este 44 Este 0 -- -- 49
2020-03-18 15:00:00 22.7 29 Este 43 Este 0 -- -- 52
2020-03-18 14:00:00 22.2 28 Este 45 Este 0 -- -- 52
2020-03-18 13:00:00 21.3 24 Este 40 Este 0 -- -- 57
2020-03-18 12:00:00 19.8 30 Este 44 Este 0 -- -- 61
2020-03-18 11:00:00 18.2 27 Este 44 Este 0 -- -- 64
2020-03-18 10:00:00 15.7 28 Este 42 Nordeste 0 -- -- 71
2020-03-18 09:00:00 13.8 18 Nordeste 32 Este 0 -- -- 77
2020-03-18 08:00:00 12.9 18 Nordeste 30 Nordeste 0 -- -- 81
2020-03-18 07:00:00 12.9 15 Nordeste 36 Este 0 -- -- 82
2020-03-18 06:00:00 12.7 14 Nordeste 27 Este 0 -- -- 83
2020-03-18 05:00:00 13 18 Nordeste 29 Este 0 -- -- 80
2020-03-18 04:00:00 13.1 19 Nordeste 37 Nordeste 0 -- -- 79
2020-03-18 03:00:00 12.8 24 Nordeste 36 Nordeste 0 -- -- 77
2020-03-18 02:00:00 13.8 15 Nordeste 25 Nordeste 0 -- -- 71
2020-03-18 01:00:00 12.4 4 Nordeste 11 Este 0 -- -- 76
2020-03-18 00:00:00 13.1 9 Este 49 Nordeste 0.2 -- -- 72
2020-03-17 23:00:00 12.8 23 Nordeste 34 Nordeste 0 -- -- 74
2020-03-17 22:00:00 13.7 6 Nordeste 16 Nordeste 0 -- -- 70
2020-03-17 21:00:00 13.7 9 Nordeste 22 Nordeste 0 -- -- 71
2020-03-17 20:00:00 14.6 10 Nordeste 28 Este 0 -- -- 64
2020-03-17 19:00:00 15.6 14 Nordeste 31 Este 0 -- -- 55
2020-03-17 18:00:00 16.2 15 Este 40 Este 0 -- -- 58
2020-03-17 17:00:00 16.3 26 Este 46 Este 0 -- -- 53
2020-03-17 16:00:00 16.4 24 Este 42 Este 0 -- -- 52
2020-03-17 15:00:00 15 16 Este 37 Este 0 -- -- 62
2020-03-17 14:00:00 14.4 22 Este 36 Este 0 -- -- 71
2020-03-17 13:00:00 11.2 17 Este 30 Sudeste 0.6 -- -- 90
2020-03-17 12:00:00 9.5 16 Este 35 Sudeste 1.2 -- -- 90
2020-03-17 11:00:00 8.7 19 Este 28 Este 1.8 -- -- 97
2020-03-17 10:00:00 7.9 13 Este 25 Este 3.6 -- -- 97
2020-03-17 09:00:00 7.8 14 Nordeste 26 Este 2 -- -- 97
2020-03-17 08:00:00 7.8 11 Nordeste 17 Nordeste 0.4 -- -- 97
2020-03-17 07:00:00 7.5 9 Nordeste 14 Nordeste 0.8 -- -- 96
2020-03-17 06:00:00 7.2 8 Nordeste 13 Nordeste 0 -- -- 93
2020-03-17 05:00:00 6.7 0 Calma 7 Norte 0 -- -- 95
2020-03-17 04:00:00 6.5 2 Noroeste 6 Oeste 0 -- -- 94
2020-03-17 03:00:00 7.6 0 Calma 7 Norte 0 -- -- 93
2020-03-17 02:00:00 8.3 3 Norte 8 Norte 0 -- -- 91
2020-03-17 01:00:00 8.6 6 Noroeste 19 Oeste 0.2 -- -- 92
2020-03-17 00:00:00 8.7 15 Oeste 22 Oeste 1.8 -- -- 90
2020-03-16 23:00:00 10.9 11 Noroeste 22 Noroeste 0.4 -- -- 75
2020-03-16 22:00:00 11.1 6 Noroeste 15 Noroeste 0 -- -- 65
2020-03-16 21:00:00 11.7 9 Norte 19 Norte 0 -- -- 59
2020-03-16 20:00:00 12.1 6 Norte 26 Norte 0 -- -- 66
2020-03-16 19:00:00 13.8 12 Norte 36 Norte 0 -- -- 51
2020-03-16 18:00:00 14.7 17 Noroeste 40 Norte 0 -- -- 46
2020-03-16 17:00:00 16 16 Noroeste 42 Noroeste 0 -- -- 40
2020-03-16 16:00:00 17.8 20 Noroeste 35 Norte 0 -- -- 39
2020-03-16 15:00:00 16.2 20 Noroeste 43 Noroeste 0 -- -- 41
2020-03-16 14:00:00 16.8 18 Noroeste 43 Oeste 0 -- -- 41
2020-03-16 13:00:00 15.6 18 Noroeste 38 Noroeste 0 -- -- 43
2020-03-16 12:00:00 14.4 18 Noroeste 35 Noroeste 0 -- -- 44
2020-03-16 11:00:00 12.6 18 Noroeste 28 Oeste 0 -- -- 54
2020-03-16 10:00:00 10.6 13 Noroeste 27 Noroeste 0 -- -- 63
2020-03-16 09:00:00 8.8 16 Noroeste 26 Oeste 0 -- -- 71
2020-03-16 08:00:00 7.2 8 Norte 24 Norte 0 -- -- 72
2020-03-16 07:00:00 4.6 3 Noroeste 6 Noroeste 0 -- -- 78
2020-03-16 06:00:00 5.7 3 Oeste 13 Noroeste 0 -- -- 76
2020-03-16 05:00:00 7.1 7 Noroeste 15 Noroeste 0 -- -- 70
2020-03-16 04:00:00 10.7 7 Noroeste 23 Oeste 0 -- -- 54
2020-03-16 03:00:00 12.2 12 Noroeste 26 Noroeste 0 -- -- 55
2020-03-16 02:00:00 13.2 16 Noroeste 31 Noroeste 0 -- -- 59
2020-03-16 01:00:00 14.8 19 Noroeste 33 Noroeste 0 -- -- 65
2020-03-16 00:00:00 15.6 14 Oeste 25 Sudoeste 0 -- -- 80
2020-03-15 23:00:00 15.4 13 Oeste 25 Oeste 0 -- -- 83
2020-03-15 22:00:00 15.4 14 Oeste 22 Sudoeste 0 -- -- 82
2020-03-15 21:00:00 15.7 12 Oeste 26 Oeste 0 -- -- 79
2020-03-15 20:00:00 17.2 14 Oeste 25 Oeste 0 -- -- 73
2020-03-15 19:00:00 19.9 17 Oeste 30 Oeste 0 -- -- 64
2020-03-15 18:00:00 22.8 17 Oeste 24 Oeste 0 -- -- 53
2020-03-15 17:00:00 23.4 15 Oeste 24 Oeste 0 -- -- 54
2020-03-15 16:00:00 22.6 8 Sur 17 Sur 0 -- -- 56
2020-03-15 15:00:00 22.3 5 Sudeste 18 Sudoeste 0 -- -- 57
2020-03-15 14:00:00 20.9 3 Oeste 13 Oeste 0 -- -- 62
2020-03-15 13:00:00 20.5 7 Oeste 11 Sudoeste 0 -- -- 66
2020-03-15 12:00:00 19 3 Oeste 12 Norte 0 -- -- 72
2020-03-15 11:00:00 16.4 4 Noroeste 12 Nordeste 0 -- -- 81
2020-03-15 10:00:00 13.1 3 Norte 6 Norte 0 -- -- 99
2020-03-15 09:00:00 9.4 0 Calma 5 Noroeste 0 -- -- 98
2020-03-15 08:00:00 8.6 4 Noroeste 5 Noroeste 0 -- -- 97
2020-03-15 07:00:00 8.1 4 Noroeste 7 Noroeste 0 -- -- 96
2020-03-15 06:00:00 8.7 0 Calma 3 Sudeste 0 -- -- 96
2020-03-15 05:00:00 8.3 0 Calma 8 Norte 0 -- -- 95
2020-03-15 04:00:00 8.5 3 Noroeste 5 Oeste 0 -- -- 94
2020-03-15 03:00:00 9.5 0 Calma 4 Este 0 -- -- 93
2020-03-15 02:00:00 10.2 2 Sudeste 6 Sur 0 -- -- 94
2020-03-15 01:00:00 10.4 0 Calma 4 Noroeste 0 -- -- 93
2020-03-15 00:00:00 11.2 2 Norte 4 Norte 0 -- -- 90
2020-03-14 23:00:00 12.4 0 Calma 5 Noroeste 0 -- -- 88
2020-03-14 22:00:00 13.2 3 Noroeste 8 Noroeste 0 -- -- 88
2020-03-14 21:00:00 14.6 5 Noroeste 12 Noroeste 0 -- -- 83
2020-03-14 20:00:00 18.9 4 Oeste 9 Noroeste 0 -- -- 73
2020-03-14 19:00:00 21.5 0 Calma 7 Sudeste 0 -- -- 63
2020-03-14 18:00:00 22.1 3 Sudoeste 10 Sudeste 0 -- -- 64
2020-03-14 17:00:00 21.6 5 Norte 9 Noroeste 0 -- -- 65
2020-03-14 16:00:00 20 3 Nordeste 12 Norte 0 -- -- 68
2020-03-14 15:00:00 18.6 6 Noroeste 13 Noroeste 0 -- -- 74
2020-03-14 14:00:00 16.4 3 Norte 9 Nordeste 0 -- -- 80
2020-03-14 13:00:00 14.4 4 Nordeste 8 Norte 0 -- -- 90
2020-03-14 12:00:00 13.7 3 Este 8 Este 0 -- -- 94
2020-03-14 11:00:00 13 4 Nordeste 10 Nordeste 0 -- -- 97
2020-03-14 10:00:00 13 2 Este 8 Nordeste 0 -- -- 97
2020-03-14 09:00:00 13.1 5 Sudeste 12 Sudeste 0 -- -- 98
2020-03-14 08:00:00 13 2 Sur 8 Sur 0 -- -- 99
2020-03-14 07:00:00 13.1 3 Este 8 Sudeste 0.2 -- -- 99
2020-03-14 06:00:00 12.8 3 Sudeste 6 Sur 0 -- -- 99
2020-03-14 05:00:00 12.9 0 Calma 8 Oeste 0 -- -- 99
2020-03-14 04:00:00 13 4 Noroeste 11 Noroeste 0 -- -- 98
2020-03-14 03:00:00 13.1 4 Oeste 10 Oeste 0 -- -- 98
2020-03-14 02:00:00 12.9 6 Oeste 10 Oeste 0 -- -- 98
2020-03-14 01:00:00 12.6 4 Sudoeste 9 Sur 0 -- -- 97
2020-03-14 00:00:00 12.1 2 Sudoeste 6 Oeste 0 -- -- 95
2020-03-13 23:00:00 12.1 3 Sur 4 Sur 0 -- -- 91
2020-03-13 22:00:00 13.6 0 Calma 7 Oeste 0 -- -- 88
2020-03-13 21:00:00 14.8 5 Oeste 16 Oeste 0 -- -- 85
2020-03-13 20:00:00 17 7 Oeste 14 Sudoeste 0 -- -- 79
2020-03-13 19:00:00 19.5 10 Sudoeste 18 Sudoeste 0 -- -- 71
2020-03-13 18:00:00 21.6 10 Sur 17 Sur 0 -- -- 65
2020-03-13 17:00:00 21.8 10 Oeste 17 Oeste 0 -- -- 62
2020-03-13 16:00:00 20.4 9 Sudoeste 18 Oeste 0 -- -- 67
2020-03-13 15:00:00 17.4 7 Oeste 15 Oeste 0 -- -- 80
2020-03-13 14:00:00 15.1 5 Sudoeste 12 Sudoeste 0 -- -- 89
2020-03-13 13:00:00 14 3 Sudeste 9 Sur 0 -- -- 91
2020-03-13 12:00:00 13.3 0 Calma 5 Este 0 -- -- 94
2020-03-13 11:00:00 12.6 3 Sur 7 Sudeste 0 -- -- 98
2020-03-13 10:00:00 12.3 2 Sudeste 7 Sudeste 0 -- -- 99
2020-03-13 09:00:00 12.1 3 Sudeste 5 Este 0 -- -- 99
2020-03-13 08:00:00 12.1 0 Calma 5 Nordeste 0 -- -- 99
2020-03-13 07:00:00 12.2 3 Nordeste 6 Norte 0 -- -- 99
2020-03-13 06:00:00 12.5 4 Sudoeste 8 Sudoeste 0 -- -- 99
2020-03-13 05:00:00 12.6 6 Sur 9 Sudoeste 0 -- -- 98
2020-03-13 04:00:00 12.9 4 Sudoeste 12 Sur 0 -- -- 98
2020-03-13 03:00:00 13.1 5 Sudoeste 9 Sur 0 -- -- 98
2020-03-13 02:00:00 12.4 4 Sudoeste 8 Sudeste 0 -- -- 98
2020-03-13 01:00:00 10.6 2 Nordeste 4 Sudeste 0 -- -- 95
2020-03-13 00:00:00 10.8 0 Calma 4 Sudeste 0 -- -- 92
2020-03-12 23:00:00 12.1 0 Calma 8 Noroeste 0 -- -- 90
2020-03-12 22:00:00 13.6 2 Noroeste 8 Noroeste 0 -- -- 87
2020-03-12 21:00:00 15.3 0 Calma 6 Noroeste 0 -- -- 83
2020-03-12 20:00:00 17 3 Sur 11 Sur 0 -- -- 78
2020-03-12 19:00:00 18.9 5 Sudoeste 14 Oeste 0 -- -- 71
2020-03-12 18:00:00 20.2 10 Sudoeste 16 Oeste 0 -- -- 62
2020-03-12 17:00:00 22.5 12 Sudoeste 22 Sudoeste 0 -- -- 53
2020-03-12 16:00:00 23.5 14 Sudoeste 27 Sudoeste 0 -- -- 48
2020-03-12 15:00:00 23 12 Sudoeste 23 Sudoeste 0 -- -- 53
2020-03-12 14:00:00 22 10 Sur 27 Sudoeste 0 -- -- 60
2020-03-12 13:00:00 20.7 6 Sur 17 Sur 0 -- -- 65
2020-03-12 12:00:00 18.6 4 Sur 13 Sudeste 0 -- -- 74
2020-03-12 11:00:00 15.4 4 Sur 9 Sur 0 -- -- 85
2020-03-12 10:00:00 13.4 3 Sudeste 5 Sudeste 0 -- -- 89
2020-03-12 09:00:00 10.1 3 Noroeste 7 Sudoeste 0 -- -- 91
2020-03-12 08:00:00 8.5 3 Noroeste 6 Noroeste 0 -- -- 91
2020-03-12 07:00:00 8.1 0 Calma 5 Noroeste 0 -- -- 88
2020-03-12 06:00:00 8.3 3 Noroeste 8 Norte 0 -- -- 90
2020-03-12 05:00:00 9.1 3 Noroeste 7 Noroeste 0 -- -- 87
2020-03-12 04:00:00 9.9 4 Noroeste 7 Noroeste 0 -- -- 86
2020-03-12 03:00:00 11.1 2 Noroeste 7 Norte 0 -- -- 84
2020-03-12 02:00:00 12.5 2 Nordeste 6 Noroeste 0 -- -- 83
2020-03-12 01:00:00 13.4 5 Noroeste 9 Noroeste 0 -- -- 79
2020-03-12 00:00:00 14.3 5 Noroeste 9 Norte 0 -- -- 76
2020-03-11 23:00:00 14.7 4 Noroeste 12 Noroeste 0 -- -- 76
2020-03-11 22:00:00 15.7 8 Noroeste 13 Oeste 0 -- -- 72
2020-03-11 21:00:00 19 6 Sudoeste 12 Nordeste 0 -- -- 61
2020-03-11 20:00:00 21.4 2 Nordeste 10 Nordeste 0 -- -- 58
2020-03-11 19:00:00 25.5 0 Calma 14 Este 0 -- -- 51
2020-03-11 18:00:00 28 9 Nordeste 16 Nordeste 0 -- -- 41
2020-03-11 17:00:00 29.1 8 Nordeste 20 Nordeste 0 -- -- 37
2020-03-11 16:00:00 28.5 11 Nordeste 17 Este 0 -- -- 39
2020-03-11 15:00:00 27.2 10 Nordeste 20 Este 0 -- -- 40
2020-03-11 14:00:00 26 12 Nordeste 22 Nordeste 0 -- -- 41
2020-03-11 13:00:00 24.6 13 Nordeste 25 Este 0 -- -- 43
2020-03-11 12:00:00 22.6 17 Este 27 Este 0 -- -- 48
2020-03-11 11:00:00 19.6 15 Nordeste 24 Nordeste 0 -- -- 53
2020-03-11 10:00:00 17.2 9 Nordeste 16 Este 0 -- -- 59
2020-03-11 09:00:00 13.5 2 Sur 8 Nordeste 0 -- -- 75
2020-03-11 08:00:00 10.8 7 Nordeste 13 Nordeste 0 -- -- 82
2020-03-11 07:00:00 8.9 5 Noroeste 13 Oeste 0 -- -- 87
2020-03-11 06:00:00 7.6 4 Noroeste 9 Oeste 0 -- -- 89
2020-03-11 05:00:00 8 2 Oeste 9 Oeste 0 -- -- 86
2020-03-11 04:00:00 8.2 4 Noroeste 8 Oeste 0 -- -- 86
2020-03-11 03:00:00 9.8 3 Norte 4 Nordeste 0 -- -- 83
2020-03-11 02:00:00 10.5 0 Calma 5 Norte 0 -- -- 80
2020-03-11 01:00:00 11.9 3 Sudoeste 7 Norte 0 -- -- 77
2020-03-11 00:00:00 13.1 3 Noroeste 7 Noroeste 0 -- -- 73
2020-03-10 23:00:00 14.5 3 Noroeste 7 Noroeste 0 -- -- 70
2020-03-10 22:00:00 15.2 2 Sudeste 14 Sur 0 -- -- 65
2020-03-10 21:00:00 16.8 5 Noroeste 10 Noroeste 0 -- -- 62
2020-03-10 20:00:00 21.8 3 Nordeste 10 Este 0 -- -- 46
2020-03-10 19:00:00 26.1 8 Este 17 Este 0 -- -- 35
2020-03-10 18:00:00 27.6 11 Este 21 Nordeste 0 -- -- 31
2020-03-10 17:00:00 28 14 Este 29 Este 0 -- -- 30
2020-03-10 16:00:00 28 16 Este 30 Este 0 -- -- 31
2020-03-10 15:00:00 27.2 15 Este 35 Este 0 -- -- 32
2020-03-10 14:00:00 26.1 24 Este 35 Este 0 -- -- 33
2020-03-10 13:00:00 24.6 22 Este 33 Este 0 -- -- 33
2020-03-10 12:00:00 22.7 21 Nordeste 31 Este 0 -- -- 35
2020-03-10 11:00:00 20.6 19 Nordeste 31 Este 0 -- -- 40
2020-03-10 10:00:00 17.8 12 Nordeste 22 Nordeste 0 -- -- 48
2020-03-10 09:00:00 14.4 12 Nordeste 19 Nordeste 0 -- -- 55
2020-03-10 08:00:00 9.2 5 Noroeste 9 Noroeste 0 -- -- 72
2020-03-10 07:00:00 12 3 Oeste 18 Nordeste 0 -- -- 62
2020-03-10 06:00:00 13.4 9 Nordeste 17 Nordeste 0 -- -- 56
2020-03-10 05:00:00 13.4 9 Nordeste 20 Nordeste 0 -- -- 56
2020-03-10 04:00:00 13.9 13 Nordeste 21 Nordeste 0 -- -- 55
2020-03-10 03:00:00 9.3 5 Nordeste 12 Nordeste 0 -- -- 74
2020-03-10 02:00:00 10.4 3 Oeste 8 Noroeste 0 -- -- 69
2020-03-10 01:00:00 11.9 6 Noroeste 9 Norte 0 -- -- 63
2020-03-10 00:00:00 12.9 6 Norte 14 Nordeste 0 -- -- 57
2020-03-09 23:00:00 16.1 8 Norte 15 Norte 0 -- -- 43
2020-03-09 22:00:00 16.3 10 Norte 17 Norte 0 -- -- 42
2020-03-09 21:00:00 14.5 8 Noroeste 13 Norte 0 -- -- 48
2020-03-09 20:00:00 19.9 5 Norte 18 Norte 0 -- -- 32
2020-03-09 19:00:00 23.1 9 Norte 21 Norte 0 -- -- 28
2020-03-09 18:00:00 25.3 8 Oeste 23 Oeste 0 -- -- 32
2020-03-09 17:00:00 24.8 15 Oeste 27 Oeste 0 -- -- 35
2020-03-09 16:00:00 24.5 12 Oeste 21 Oeste 0 -- -- 32
2020-03-09 15:00:00 23.7 8 Noroeste 21 Oeste 0 -- -- 34
2020-03-09 14:00:00 22.7 5 Oeste 14 Norte 0 -- -- 36
2020-03-09 13:00:00 21 4 Sudoeste 10 Oeste 0 -- -- 45
2020-03-09 12:00:00 18.8 4 Sudeste 8 Sur 0 -- -- 55
2020-03-09 11:00:00 16.9 2 Noroeste 6 Norte 0 -- -- 66
2020-03-09 10:00:00 12.5 4 Oeste 6 Oeste 0 -- -- 84
2020-03-09 09:00:00 7.9 2 Noroeste 6 Noroeste 0 -- -- 95
2020-03-09 08:00:00 4.1 4 Noroeste 6 Noroeste 0 -- -- 91
2020-03-09 07:00:00 5.3 2 Norte 5 Norte 0 -- -- 88
2020-03-09 06:00:00 5.6 6 Norte 13 Norte 0 -- -- 87
2020-03-09 05:00:00 6.5 2 Este 6 Este 0 -- -- 84
2020-03-09 04:00:00 7.2 2 Sur 7 Noroeste 0 -- -- 80
2020-03-09 03:00:00 8.4 4 Noroeste 9 Oeste 0 -- -- 75
2020-03-09 02:00:00 9.1 6 Noroeste 13 Noroeste 0 -- -- 71
2020-03-09 01:00:00 10.6 8 Noroeste 11 Norte 0 -- -- 68
2020-03-09 00:00:00 12.2 7 Norte 11 Norte 0 -- -- 64
2020-03-08 23:00:00 13.8 3 Noroeste 12 Noroeste 0 -- -- 62
2020-03-08 22:00:00 14.8 9 Noroeste 13 Noroeste 0 -- -- 56
2020-03-08 21:00:00 14.8 6 Noroeste 13 Noroeste 0 -- -- 57
2020-03-08 20:00:00 16.9 6 Noroeste 17 Noroeste 0 -- -- 49
2020-03-08 19:00:00 21 13 Noroeste 25 Oeste 0 -- -- 33
2020-03-08 18:00:00 24 15 Oeste 24 Oeste 0 -- -- 31
2020-03-08 17:00:00 24.3 12 Oeste 19 Oeste 0 -- -- 30
2020-03-08 16:00:00 24.4 9 Oeste 21 Oeste 0 -- -- 29
2020-03-08 15:00:00 22.9 7 Norte 18 Noroeste 0 -- -- 32
2020-03-08 14:00:00 21.6 5 Oeste 13 Noroeste 0 -- -- 35
2020-03-08 13:00:00 20.5 6 Sudeste 14 Este 0 -- -- 39
2020-03-08 12:00:00 18.5 7 Este 13 Este 0 -- -- 44
2020-03-08 11:00:00 15.5 8 Nordeste 14 Nordeste 0 -- -- 53
2020-03-08 10:00:00 12.2 4 Nordeste 12 Nordeste 0 -- -- 60
2020-03-08 09:00:00 7.1 0 Calma 8 Noroeste 0 -- -- 82
2020-03-08 08:00:00 5.2 2 Oeste 8 Noroeste 0 -- -- 81
2020-03-08 07:00:00 5.4 2 Noroeste 8 Noroeste 0 -- -- 81
2020-03-08 06:00:00 4.4 4 Oeste 8 Oeste 0 -- -- 84
2020-03-08 05:00:00 5.2 3 Noroeste 8 Oeste 0 -- -- 80
2020-03-08 04:00:00 5.9 6 Noroeste 9 Noroeste 0 -- -- 81
2020-03-08 03:00:00 6.1 6 Noroeste 8 Noroeste 0 -- -- 80
2020-03-08 02:00:00 6.2 3 Noroeste 8 Norte 0 -- -- 79
2020-03-08 01:00:00 6.4 2 Noroeste 8 Noroeste 0 -- -- 80
2020-03-08 00:00:00 6.6 5 Noroeste 8 Oeste 0 -- -- 80
2020-03-07 23:00:00 7.2 4 Noroeste 6 Noroeste 0 -- -- 77
2020-03-07 22:00:00 9.1 2 Noroeste 6 Noroeste 0 -- -- 72
2020-03-07 21:00:00 11.8 3 Noroeste 5 Noroeste 0 -- -- 62
2020-03-07 20:00:00 15.9 0 Calma 9 Oeste 0 -- -- 51
2020-03-07 19:00:00 20 4 Este 13 Sudeste 0 -- -- 37
2020-03-07 18:00:00 21.1 7 Este 18 Este 0 -- -- 34
2020-03-07 17:00:00 20.9 9 Este 21 Este 0 -- -- 33
2020-03-07 16:00:00 20.8 10 Este 24 Nordeste 0 -- -- 32
2020-03-07 15:00:00 20.4 18 Este 30 Este 0 -- -- 32
2020-03-07 14:00:00 19.4 15 Nordeste 30 Nordeste 0 -- -- 34
2020-03-07 13:00:00 17.9 18 Nordeste 28 Este 0 -- -- 39
2020-03-07 12:00:00 16.5 19 Este 33 Este 0 -- -- 42
2020-03-07 11:00:00 15.1 17 Este 27 Este 0 -- -- 49
2020-03-07 10:00:00 12.3 9 Nordeste 17 Nordeste 0 -- -- 56
2020-03-07 09:00:00 9 12 Nordeste 21 Nordeste 0 -- -- 66
2020-03-07 08:00:00 4.5 6 Nordeste 12 Nordeste 0 -- -- 88
2020-03-07 07:00:00 4.3 4 Oeste 8 Noroeste 0 -- -- 87
2020-03-07 06:00:00 4.3 3 Noroeste 6 Noroeste 0 -- -- 88
2020-03-07 05:00:00 5.1 0 Calma 7 Norte 0 -- -- 86
2020-03-07 04:00:00 5.8 7 Norte 12 Noroeste 0 -- -- 86
2020-03-07 03:00:00 5.6 0 Calma 8 Norte 0 -- -- 87
2020-03-07 02:00:00 6.3 2 Sudoeste 6 Este 0 -- -- 84
2020-03-07 01:00:00 7.1 2 Noroeste 8 Noroeste 0 -- -- 80
2020-03-07 00:00:00 8.1 4 Noroeste 10 Noroeste 0 -- -- 80
2020-03-06 23:00:00 8.3 3 Oeste 12 Noroeste 0 -- -- 79
2020-03-06 22:00:00 10.3 5 Noroeste 13 Norte 0 -- -- 71
2020-03-06 21:00:00 12.2 10 Norte 15 Noroeste 0 -- -- 63
2020-03-06 20:00:00 13.8 6 Noroeste 17 Norte 0 -- -- 57
2020-03-06 19:00:00 16.9 9 Noroeste 20 Noroeste 0 -- -- 49
2020-03-06 18:00:00 19.5 12 Noroeste 26 Noroeste 0 -- -- 42
2020-03-06 17:00:00 20.1 15 Noroeste 33 Norte 0 -- -- 41
2020-03-06 16:00:00 20.3 13 Noroeste 30 Noroeste 0 -- -- 40
2020-03-06 15:00:00 19.2 18 Noroeste 33 Noroeste 0 -- -- 45
2020-03-06 14:00:00 18.3 14 Noroeste 36 Noroeste 0 -- -- 48
2020-03-06 13:00:00 17.7 16 Noroeste 32 Noroeste 0 -- -- 49
2020-03-06 12:00:00 16.2 14 Noroeste 29 Noroeste 0 -- -- 54
2020-03-06 11:00:00 14 16 Noroeste 33 Noroeste 0 -- -- 72
2020-03-06 10:00:00 12.2 18 Oeste 24 Noroeste 0 -- -- 82
2020-03-06 09:00:00 9.1 9 Oeste 13 Oeste 0 -- -- 95
2020-03-06 08:00:00 7.6 8 Noroeste 13 Noroeste 0 -- -- 96
2020-03-06 07:00:00 6.6 8 Noroeste 12 Noroeste 0 -- -- 96
2020-03-06 06:00:00 6 6 Noroeste 13 Noroeste 0 -- -- 95
2020-03-06 05:00:00 5.8 7 Noroeste 13 Noroeste 0 -- -- 94
2020-03-06 04:00:00 5.7 6 Noroeste 12 Norte 0 -- -- 93
2020-03-06 03:00:00 5.9 2 Noroeste 5 Norte 0 -- -- 91
2020-03-06 02:00:00 6.5 2 Noroeste 11 Noroeste 0 -- -- 89
2020-03-06 01:00:00 8.1 6 Noroeste 14 Noroeste 0 -- -- 85
2020-03-06 00:00:00 8.5 11 Noroeste 16 Noroeste 0 -- -- 84
2020-03-05 23:00:00 9 6 Noroeste 14 Noroeste 0 -- -- 81
2020-03-05 22:00:00 9.6 5 Noroeste 11 Noroeste 0 -- -- 79
2020-03-05 21:00:00 11.7 8 Noroeste 13 Noroeste 0 -- -- 73
2020-03-05 20:00:00 14.8 10 Noroeste 24 Noroeste 0 -- -- 60
2020-03-05 19:00:00 17.3 13 Noroeste 30 Noroeste 0 -- -- 53
2020-03-05 18:00:00 19.4 15 Noroeste 33 Noroeste 0 -- -- 49
2020-03-05 17:00:00 19.5 24 Noroeste 36 Noroeste 0 -- -- 48
2020-03-05 16:00:00 18.9 21 Noroeste 33 Noroeste 0 -- -- 53
2020-03-05 15:00:00 18.5 17 Noroeste 31 Oeste 0 -- -- 58
2020-03-05 14:00:00 17.9 13 Noroeste 28 Oeste 0 -- -- 69
2020-03-05 13:00:00 15.8 22 Oeste 34 Oeste 0 -- -- 80
2020-03-05 12:00:00 16.6 19 Oeste 29 Oeste 0 -- -- 73
2020-03-05 11:00:00 15.1 13 Oeste 26 Oeste 0 -- -- 83
2020-03-05 10:00:00 14.6 15 Oeste 23 Noroeste 0 -- -- 88
2020-03-05 09:00:00 11.5 0 Calma 4 Sudeste 0 -- -- 98
2020-03-05 08:00:00 10.1 0 Calma 22 Oeste 0 -- -- 97
2020-03-05 07:00:00 10.7 13 Noroeste 27 Noroeste 0 -- -- 98
2020-03-05 06:00:00 8.2 0 Calma 4 Norte 0 -- -- 95
2020-03-05 05:00:00 9 3 Noroeste 8 Norte 0 -- -- 94
2020-03-05 04:00:00 9.3 4 Norte 13 Noroeste 0 -- -- 93
2020-03-05 03:00:00 10.3 5 Noroeste 17 Noroeste 0 -- -- 90
2020-03-05 02:00:00 10.9 7 Noroeste 13 Noroeste 0 -- -- 94
2020-03-05 01:00:00 11.1 5 Norte 10 Norte 0 -- -- 94
2020-03-05 00:00:00 10.7 4 Noroeste 10 Norte 0 -- -- 91
2020-03-04 23:00:00 11.6 5 Noroeste 12 Noroeste 0 -- -- 86
2020-03-04 22:00:00 13.2 4 Noroeste 10 Noroeste 0 -- -- 83
2020-03-04 21:00:00 15.1 6 Noroeste 19 Sudoeste 0 -- -- 78
2020-03-04 20:00:00 16.1 3 Noroeste 11 Noroeste 0 -- -- 71
2020-03-04 19:00:00 19.9 8 Noroeste 20 Oeste 0 -- -- 59
2020-03-04 18:00:00 21.7 14 Noroeste 26 Oeste 0 -- -- 54
2020-03-04 17:00:00 22.1 14 Oeste 24 Noroeste 0 -- -- 53
2020-03-04 16:00:00 21.9 14 Oeste 28 Oeste 0 -- -- 56
2020-03-04 15:00:00 21.4 12 Oeste 19 Oeste 0 -- -- 55
2020-03-04 14:00:00 20 10 Noroeste 22 Oeste 0 -- -- 60
2020-03-04 13:00:00 19.2 13 Noroeste 22 Noroeste 0 -- -- 63
2020-03-04 12:00:00 18.8 10 Noroeste 21 Noroeste 0 -- -- 65
2020-03-04 11:00:00 17.1 8 Noroeste 15 Noroeste 0 -- -- 75
2020-03-04 10:00:00 14.2 5 Noroeste 11 Noroeste 0 -- -- 95
2020-03-04 09:00:00 10.5 4 Noroeste 8 Norte 0 -- -- 98
2020-03-04 08:00:00 8.6 8 Noroeste 9 Noroeste 0 -- -- 98
2020-03-04 07:00:00 8.7 5 Noroeste 10 Norte 0 -- -- 97
2020-03-04 06:00:00 9.2 4 Noroeste 9 Norte 0 -- -- 97
2020-03-04 05:00:00 10.5 9 Norte 12 Norte 0 -- -- 98
2020-03-04 04:00:00 10.2 6 Noroeste 10 Noroeste 0 -- -- 98
2020-03-04 03:00:00 9.5 0 Calma 9 Noroeste 0 -- -- 97
2020-03-04 02:00:00 10.3 4 Noroeste 6 Norte 0 -- -- 97
2020-03-04 01:00:00 10.6 3 Noroeste 9 Noroeste 0 -- -- 97
2020-03-04 00:00:00 11.1 5 Norte 9 Oeste 0 -- -- 97
2020-03-03 23:00:00 12.1 5 Noroeste 14 Oeste 0 -- -- 94
2020-03-03 22:00:00 13.6 4 Norte 18 Oeste 0 -- -- 94
2020-03-03 21:00:00 14.4 12 Sudoeste 21 Oeste 0 -- -- 91
2020-03-03 20:00:00 15.3 11 Sudoeste 25 Sudoeste 0 -- -- 85
2020-03-03 19:00:00 17.1 14 Sudoeste 28 Sudoeste 0 -- -- 75
2020-03-03 18:00:00 19.2 17 Sudoeste 28 Oeste 0 -- -- 65
2020-03-03 17:00:00 19.3 15 Oeste 27 Oeste 0 -- -- 63
2020-03-03 16:00:00 19.4 14 Oeste 35 Noroeste 0 -- -- 64
2020-03-03 15:00:00 19 19 Oeste 37 Oeste 0 -- -- 64
2020-03-03 14:00:00 17.8 18 Oeste 32 Oeste 0 -- -- 66
2020-03-03 13:00:00 16.8 24 Oeste 38 Oeste 0 -- -- 67
2020-03-03 12:00:00 16 22 Oeste 39 Oeste 0 -- -- 67
2020-03-03 11:00:00 14.2 8 Sudoeste 13 Oeste 0 -- -- 77
2020-03-03 10:00:00 10.9 3 Oeste 5 Oeste 0 -- -- 89
2020-03-03 09:00:00 6.7 0 Calma 4 Oeste 0 -- -- 97
2020-03-03 08:00:00 5.2 5 Norte 8 Norte 0 -- -- 96
2020-03-03 07:00:00 6 0 Calma 3 Sudoeste 0 -- -- 96
2020-03-03 06:00:00 5.8 0 Calma 9 Oeste 0 -- -- 94
2020-03-03 05:00:00 6.3 3 Noroeste 8 Norte 0 -- -- 92
2020-03-03 04:00:00 7.1 0 Calma 5 Norte 0 -- -- 92
2020-03-03 03:00:00 7.3 3 Oeste 4 Noroeste 0 -- -- 89
2020-03-03 02:00:00 8.7 0 Calma 5 Noroeste 0 -- -- 88
2020-03-03 01:00:00 8.7 4 Noroeste 11 Noroeste 0 -- -- 86
2020-03-03 00:00:00 9.4 9 Noroeste 13 Noroeste 0 -- -- 83